Time;durP1;ratioP1;P1;durP2;ratioP2;P2;SDS_P1;SDS_P2;PMS_P1;PMS_P2;Temp;Humidity;BMP_temperature;BMP_pressure;BME280_temperature;BME280_humidity;BME280_pressure;Samples;Min_cycle;Max_cycle;Signal;HPM_P1;HPM_P2
2022/09/30 00:01:26;;;;;;;0.50;0.50;;;10.90;99.90;;;;;;5067677;28;20243;-79
2022/09/30 00:03:53;;;;;;;1.27;1.17;;;10.80;99.90;;;;;;5074733;28;20842;-79
2022/09/30 00:06:19;;;;;;;6.13;1.27;;;10.80;99.90;;;;;;5069949;28;20665;-79
2022/09/30 00:08:46;;;;;;;0.87;0.87;;;10.90;99.90;;;;;;5067616;28;20506;-81
2022/09/30 00:11:20;;;;;;;0.80;0.80;;;10.90;99.90;;;;;;5067844;28;20240;-79
2022/09/30 00:13:49;;;;;;;1.27;0.83;;;10.90;99.90;;;;;;5066770;28;20228;-80
2022/09/30 00:16:16;;;;;;;1.07;0.67;;;10.90;99.90;;;;;;5067794;28;20228;-81
2022/09/30 00:18:43;;;;;;;1.20;0.90;;;10.80;99.90;;;;;;5068043;28;20227;-80
2022/09/30 00:21:09;;;;;;;1.27;1.20;;;10.80;99.90;;;;;;5069946;28;20227;-79
2022/09/30 00:23:37;;;;;;;0.50;0.50;;;10.90;99.90;;;;;;5067393;28;20181;-80
2022/09/30 00:26:07;;;;;;;0.90;0.70;;;10.90;99.90;;;;;;5065199;28;20590;-80
2022/09/30 00:28:33;;;;;;;0.97;0.87;;;10.90;99.90;;;;;;5067826;28;20653;-80
2022/09/30 00:31:01;;;;;;;0.50;0.50;;;11.00;99.90;;;;;;5049829;28;20213;-80
2022/09/30 00:33:27;;;;;;;0.60;0.60;;;11.10;99.90;;;;;;5069068;28;20686;-79
2022/09/30 00:35:52;;;;;;;1.97;1.20;;;11.00;99.90;;;;;;5066333;28;20228;-80
2022/09/30 00:38:18;;;;;;;0.53;0.53;;;10.70;99.90;;;;;;5065560;28;20296;-80
2022/09/30 00:40:44;;;;;;;0.73;0.53;;;10.50;99.90;;;;;;5068159;28;20213;-80
2022/09/30 00:43:16;;;;;;;0.47;0.47;;;10.30;99.90;;;;;;5065139;28;20842;-81
2022/09/30 00:45:58;;;;;;;0.63;0.57;;;9.90;99.90;;;;;;5064729;28;20647;-80
2022/09/30 00:48:32;;;;;;;1.87;1.20;;;9.90;99.90;;;;;;5068250;28;20219;-81
2022/09/30 00:51:01;;;;;;;0.60;0.60;;;10.00;99.90;;;;;;5069406;28;20192;-81
2022/09/30 00:53:46;;;;;;;2.03;0.80;;;10.10;99.90;;;;;;5051936;28;20196;-82
2022/09/30 00:56:23;;;;;;;0.90;0.70;;;10.30;99.90;;;;;;5074212;28;20366;-80
2022/09/30 00:58:51;;;;;;;1.43;0.90;;;10.40;99.90;;;;;;5068696;28;20221;-81
2022/09/30 01:01:19;;;;;;;0.70;0.53;;;10.30;99.90;;;;;;5062945;28;20263;-81
2022/09/30 01:03:50;;;;;;;1.40;0.60;;;9.90;99.90;;;;;;5070494;28;20217;-79
2022/09/30 01:06:18;;;;;;;1.57;0.80;;;9.50;99.90;;;;;;5066803;28;20270;-82
2022/09/30 01:08:45;;;;;;;0.97;0.80;;;9.40;99.90;;;;;;5063153;28;20670;-80
2022/09/30 01:11:11;;;;;;;2.47;1.10;;;9.50;99.90;;;;;;5066235;28;20295;-80
2022/09/30 01:13:39;;;;;;;0.63;0.63;;;9.60;99.90;;;;;;5066015;28;20228;-80
2022/09/30 01:16:12;;;;;;;0.97;0.87;;;9.70;99.90;;;;;;5067889;28;20248;-78
2022/09/30 01:19:06;;;;;;;0.40;0.40;;;9.90;99.90;;;;;;5067826;28;20563;-80
2022/09/30 01:21:50;;;;;;;0.50;0.50;;;10.00;99.90;;;;;;5066978;28;20387;-81
2022/09/30 01:24:35;;;;;;;2.00;1.40;;;10.00;99.90;;;;;;5069602;28;20224;-81
2022/09/30 01:27:25;;;;;;;24.97;1.90;;;10.00;99.90;;;;;;5064892;28;20181;-81
2022/09/30 01:30:00;;;;;;;0.57;0.43;;;9.80;99.90;;;;;;5071014;28;20193;-79
2022/09/30 01:33:02;;;;;;;0.63;0.63;;;9.20;99.90;;;;;;5070589;28;20703;-79
2022/09/30 01:35:50;;;;;;;1.93;1.00;;;9.20;99.90;;;;;;5058792;28;20350;-78
2022/09/30 01:38:30;;;;;;;1.13;1.03;;;9.10;99.90;;;;;;5065290;28;20259;-79
2022/09/30 01:41:17;;;;;;;0.50;0.50;;;9.30;99.90;;;;;;5063816;28;20578;-80
2022/09/30 01:44:11;;;;;;;1.30;1.20;;;9.60;99.90;;;;;;5066732;28;20279;-79
2022/09/30 01:46:44;;;;;;;2.93;1.23;;;9.80;99.90;;;;;;5069200;28;20252;-79
2022/09/30 01:49:19;;;;;;;0.50;0.47;;;9.70;99.90;;;;;;5063105;28;20213;-80
2022/09/30 01:51:54;;;;;;;15.03;0.87;;;9.70;99.90;;;;;;5062837;28;20539;-80
2022/09/30 01:54:29;;;;;;;3.07;1.03;;;9.60;99.90;;;;;;5067031;28;20228;-78
2022/09/30 01:57:13;;;;;;;0.43;0.43;;;9.50;99.90;;;;;;5065062;28;20201;-79
2022/09/30 01:59:49;;;;;;;1.20;1.17;;;9.40;99.90;;;;;;5070882;28;20722;-79
2022/09/30 02:02:24;;;;;;;3.37;1.70;;;9.40;99.90;;;;;;5067260;28;20220;-79
2022/09/30 02:05:09;;;;;;;2.00;1.43;;;9.40;99.90;;;;;;5067886;28;20213;-81
2022/09/30 02:07:37;;;;;;;1.20;0.80;;;9.50;99.90;;;;;;5068459;28;20262;-79
2022/09/30 02:10:19;;;;;;;1.07;0.80;;;9.60;99.90;;;;;;5067963;28;20225;-79
2022/09/30 02:13:02;;;;;;;1.63;1.43;;;9.60;99.90;;;;;;5064113;28;20256;-79
2022/09/30 02:15:36;;;;;;;0.90;0.90;;;9.50;99.90;;;;;;5064472;28;20245;-80
2022/09/30 02:18:08;;;;;;;0.73;0.60;;;9.50;99.90;;;;;;5066222;28;20504;-79
2022/09/30 02:20:39;;;;;;;1.10;1.10;;;9.60;99.90;;;;;;5070400;28;20189;-80
2022/09/30 02:23:24;;;;;;;1.60;1.20;;;9.60;99.90;;;;;;5069173;28;20631;-79
2022/09/30 02:26:14;;;;;;;4.80;1.43;;;9.60;99.90;;;;;;5069420;28;20608;-79
2022/09/30 02:28:48;;;;;;;0.67;0.63;;;9.60;99.90;;;;;;5065927;28;20221;-80
2022/09/30 02:31:16;;;;;;;1.23;1.13;;;9.60;99.90;;;;;;5065446;28;20607;-80
2022/09/30 02:33:49;;;;;;;1.43;1.20;;;9.50;99.90;;;;;;5063680;28;20279;-79
2022/09/30 02:36:29;;;;;;;1.53;1.27;;;9.60;99.90;;;;;;5071890;28;20240;-79
2022/09/30 02:39:12;;;;;;;9.87;0.90;;;9.60;99.90;;;;;;5067142;28;20635;-79
2022/09/30 02:41:48;;;;;;;2.23;1.40;;;9.70;99.90;;;;;;5071546;28;20908;-78
2022/09/30 02:44:15;;;;;;;2.47;1.47;;;9.70;99.90;;;;;;5075585;28;20212;-79
2022/09/30 02:47:08;;;;;;;1.00;1.00;;;9.70;99.90;;;;;;5066132;28;20240;-78
2022/09/30 02:50:00;;;;;;;1.20;1.13;;;9.70;99.90;;;;;;5064587;28;20233;-80
2022/09/30 02:53:20;;;;;;;0.93;0.80;;;9.70;99.90;;;;;;5063318;28;20574;-81
2022/09/30 02:56:17;;;;;;;0.83;0.80;;;9.70;99.90;;;;;;5043030;28;20259;-80
2022/09/30 02:58:44;;;;;;;0.70;0.70;;;9.70;99.90;;;;;;5066089;28;20228;-79
2022/09/30 03:01:13;;;;;;;1.30;0.93;;;9.70;99.90;;;;;;5061073;28;20690;-79
2022/09/30 03:03:58;;;;;;;1.63;1.10;;;9.80;99.90;;;;;;5069649;28;20208;-79
2022/09/30 03:06:24;;;;;;;1.10;1.00;;;9.80;99.90;;;;;;5067840;28;20248;-80
2022/09/30 03:08:51;;;;;;;1.33;1.23;;;9.80;99.90;;;;;;5067690;28;20212;-79
2022/09/30 03:11:23;;;;;;;5.03;2.40;;;9.70;99.90;;;;;;5084149;28;20770;-80
2022/09/30 03:14:01;;;;;;;1.87;1.50;;;9.80;99.90;;;;;;5065723;28;20213;-81
2022/09/30 03:16:30;;;;;;;2.97;1.23;;;9.70;99.90;;;;;;5067235;28;20241;-80
2022/09/30 03:19:05;;;;;;;1.47;1.37;;;9.70;99.90;;;;;;5064334;28;20935;-80
2022/09/30 03:21:42;;;;;;;1.63;1.30;;;9.70;99.90;;;;;;5065592;28;20698;-82
2022/09/30 03:24:32;;;;;;;1.83;1.40;;;9.60;99.90;;;;;;5062543;28;20599;-80
2022/09/30 03:27:27;;;;;;;1.53;1.43;;;9.60;99.90;;;;;;5064440;28;20261;-79
2022/09/30 03:30:06;;;;;;;2.10;1.90;;;9.50;99.90;;;;;;5064159;28;20609;-79
2022/09/30 03:33:08;;;;;;;2.73;1.47;;;9.50;99.90;;;;;;5067359;28;20733;-80
2022/09/30 03:35:51;;;;;;;2.70;1.73;;;9.50;99.90;;;;;;5061998;28;20228;-81
2022/09/30 03:38:38;;;;;;;2.73;1.70;;;9.50;99.90;;;;;;5066475;28;20204;-81
2022/09/30 03:41:27;;;;;;;1.47;1.37;;;9.50;99.90;;;;;;5068012;28;20217;-80
2022/09/30 03:44:04;;;;;;;3.10;1.80;;;9.60;99.90;;;;;;5069557;28;20220;-80
2022/09/30 03:46:46;;;;;;;1.43;1.33;;;9.60;99.90;;;;;;5069176;28;20217;-80
2022/09/30 03:49:28;;;;;;;6.53;1.20;;;9.60;99.90;;;;;;5063798;28;20224;-80
2022/09/30 03:51:56;;;;;;;3.30;1.67;;;9.60;99.90;;;;;;5064770;28;20221;-81
2022/09/30 03:54:22;;;;;;;2.77;1.37;;;9.60;99.90;;;;;;5079565;28;20219;-79
2022/09/30 03:56:49;;;;;;;1.97;1.53;;;9.60;99.90;;;;;;5062635;28;20185;-79
2022/09/30 03:59:27;;;;;;;2.00;1.63;;;9.60;99.90;;;;;;5072754;28;20200;-79
2022/09/30 04:01:53;;;;;;;0.90;0.90;;;9.60;99.90;;;;;;5060560;28;20674;-81
2022/09/30 04:04:19;;;;;;;0.97;0.97;;;9.60;99.90;;;;;;5063843;28;20266;-80
2022/09/30 04:06:45;;;;;;;1.10;0.73;;;9.60;99.90;;;;;;5066583;28;20675;-79
2022/09/30 04:09:11;;;;;;;2.20;2.00;;;9.70;99.90;;;;;;5065127;28;20217;-79
2022/09/30 04:11:37;;;;;;;1.50;1.40;;;9.70;99.90;;;;;;5062762;28;20240;-79
2022/09/30 04:14:04;;;;;;;1.80;1.40;;;9.70;99.90;;;;;;5061994;28;20240;-80
2022/09/30 04:16:30;;;;;;;1.43;1.07;;;9.80;99.90;;;;;;5065172;28;20266;-80
2022/09/30 04:18:56;;;;;;;1.43;1.33;;;9.80;99.90;;;;;;5069277;28;20818;-79
2022/09/30 04:21:22;;;;;;;2.87;1.50;;;9.80;99.90;;;;;;5069350;28;20220;-79
2022/09/30 04:23:48;;;;;;;4.17;1.33;;;9.80;99.90;;;;;;5065182;28;20527;-81
2022/09/30 04:26:16;;;;;;;1.90;1.50;;;9.80;99.90;;;;;;5064114;28;20200;-79
2022/09/30 04:28:42;;;;;;;17.20;2.60;;;9.80;99.90;;;;;;5070843;28;20309;-79
2022/09/30 04:31:11;;;;;;;1.33;1.23;;;9.80;99.90;;;;;;5065476;28;20325;-80
2022/09/30 04:33:38;;;;;;;5.07;1.40;;;9.80;99.90;;;;;;5075248;28;20704;-80
2022/09/30 04:36:05;;;;;;;0.80;0.80;;;9.80;99.90;;;;;;5070599;28;20228;-79
2022/09/30 04:38:32;;;;;;;8.90;1.43;;;9.70;99.90;;;;;;5063526;28;20468;-79
2022/09/30 04:41:04;;;;;;;1.43;1.30;;;9.80;99.90;;;;;;5069255;28;20217;-79
2022/09/30 04:43:31;;;;;;;1.70;1.50;;;9.80;99.90;;;;;;5070918;28;20591;-79
2022/09/30 04:45:57;;;;;;;2.77;2.00;;;9.70;99.90;;;;;;5064888;28;20221;-78
2022/09/30 04:48:29;;;;;;;1.80;1.70;;;9.70;99.90;;;;;;5060964;28;20811;-81
2022/09/30 04:50:54;;;;;;;2.30;1.63;;;9.60;99.90;;;;;;5061074;28;20707;-82
2022/09/30 04:53:20;;;;;;;1.60;1.50;;;9.50;99.90;;;;;;5065370;28;20189;-81
2022/09/30 04:55:46;;;;;;;2.07;1.87;;;9.40;99.90;;;;;;5067313;28;20221;-80
2022/09/30 04:58:12;;;;;;;2.13;1.27;;;9.30;99.90;;;;;;5048043;28;20865;-80
2022/09/30 05:00:38;;;;;;;2.07;1.87;;;9.30;99.90;;;;;;5067912;28;20209;-81
2022/09/30 05:03:04;;;;;;;2.87;2.00;;;9.20;99.90;;;;;;5058487;28;20228;-80
2022/09/30 05:05:31;;;;;;;2.07;1.67;;;9.20;99.90;;;;;;5073068;28;20192;-80
2022/09/30 05:08:04;;;;;;;2.53;1.73;;;9.10;99.90;;;;;;5066100;28;20240;-80
2022/09/30 05:10:31;;;;;;;2.10;1.57;;;9.10;99.90;;;;;;5065681;28;20213;-80
2022/09/30 05:12:57;;;;;;;1.53;1.43;;;9.10;99.90;;;;;;5061667;28;20228;-80
2022/09/30 05:15:23;;;;;;;2.13;1.33;;;9.10;99.90;;;;;;5063989;28;20778;-80
2022/09/30 05:17:50;;;;;;;1.70;1.60;;;9.10;99.90;;;;;;5065808;28;20197;-81
2022/09/30 05:20:15;;;;;;;2.30;2.07;;;9.00;99.90;;;;;;5071522;28;20696;-81
2022/09/30 05:22:42;;;;;;;3.97;2.07;;;9.00;99.90;;;;;;5073165;28;20464;-80
2022/09/30 05:25:08;;;;;;;2.37;2.17;;;9.00;99.90;;;;;;5064376;28;20682;-80
2022/09/30 05:27:33;;;;;;;5.13;1.90;;;9.00;99.90;;;;;;5071939;28;20269;-80
2022/09/30 05:29:59;;;;;;;2.20;2.00;;;8.90;99.90;;;;;;5066833;28;20860;-80
2022/09/30 05:32:25;;;;;;;2.63;2.03;;;8.90;99.90;;;;;;5068313;28;20193;-80
2022/09/30 05:34:51;;;;;;;2.80;1.93;;;8.90;99.90;;;;;;5064187;28;20332;-81
2022/09/30 05:37:17;;;;;;;1.60;1.50;;;8.90;99.90;;;;;;5066914;28;20227;-81
2022/09/30 05:39:42;;;;;;;1.90;1.80;;;9.00;99.90;;;;;;5072032;28;20225;-80
2022/09/30 05:42:08;;;;;;;2.10;1.60;;;9.00;99.90;;;;;;5069036;28;20225;-80
2022/09/30 05:44:34;;;;;;;2.53;2.07;;;9.00;99.90;;;;;;5065432;28;20219;-80
2022/09/30 05:47:00;;;;;;;3.33;2.60;;;9.00;99.90;;;;;;5069415;28;20212;-80
2022/09/30 05:49:25;;;;;;;2.73;2.50;;;9.00;99.90;;;;;;5052017;28;20303;-80
2022/09/30 05:51:52;;;;;;;2.13;1.83;;;9.00;99.90;;;;;;5070206;28;20239;-82
2022/09/30 05:54:18;;;;;;;2.97;2.77;;;9.10;99.90;;;;;;5048428;28;20216;-81
2022/09/30 05:56:43;;;;;;;2.00;1.73;;;9.10;99.90;;;;;;5050342;28;20243;-81
2022/09/30 05:59:09;;;;;;;6.17;2.93;;;9.10;99.90;;;;;;5068556;28;20216;-80
2022/09/30 06:01:35;;;;;;;3.33;2.63;;;9.10;99.90;;;;;;5067718;28;20229;-80
2022/09/30 06:04:01;;;;;;;2.80;2.37;;;9.20;99.90;;;;;;5066863;28;20213;-80
2022/09/30 06:06:29;;;;;;;3.97;2.47;;;9.10;99.90;;;;;;5062518;28;20587;-80
2022/09/30 06:08:55;;;;;;;4.63;2.97;;;9.10;99.90;;;;;;5068907;28;20191;-79
2022/09/30 06:11:24;;;;;;;4.10;2.53;;;9.20;99.90;;;;;;5048777;28;20241;-79
2022/09/30 06:13:50;;;;;;;2.53;2.33;;;9.20;99.90;;;;;;5065735;28;20283;-80
2022/09/30 06:16:17;;;;;;;2.10;1.93;;;9.30;99.90;;;;;;5063908;28;20320;-80
2022/09/30 06:18:43;;;;;;;5.70;2.50;;;9.30;99.90;;;;;;5064957;28;20217;-80
2022/09/30 06:21:14;;;;;;;3.20;2.40;;;9.50;99.90;;;;;;5067999;28;20630;-82
2022/09/30 06:23:40;;;;;;;2.93;2.73;;;9.80;99.90;;;;;;5073116;28;20177;-83
2022/09/30 06:26:07;;;;;;;3.70;3.30;;;10.90;99.90;;;;;;5069216;28;20333;-83
2022/09/30 06:28:34;;;;;;;2.67;2.23;;;12.70;99.90;;;;;;5073622;28;20225;-83
2022/09/30 06:31:01;;;;;;;5.77;4.40;;;14.20;99.90;;;;;;5067132;28;20247;-79
2022/09/30 06:33:27;;;;;;;5.83;5.23;;;15.00;99.90;;;;;;5067963;28;20217;-80
2022/09/30 06:35:53;;;;;;;4.93;4.43;;;15.80;99.90;;;;;;5064564;28;20205;-80
2022/09/30 06:38:21;;;;;;;6.20;3.73;;;16.90;99.90;;;;;;5066554;28;20181;-79
2022/09/30 06:40:49;;;;;;;5.60;3.60;;;18.10;99.90;;;;;;5045823;28;20216;-80
2022/09/30 06:43:16;;;;;;;6.00;4.87;;;18.60;99.90;;;;;;5069982;28;20237;-80
2022/09/30 06:45:44;;;;;;;4.50;3.40;;;19.70;99.90;;;;;;5064895;28;20228;-80
2022/09/30 06:48:09;;;;;;;4.47;2.90;;;20.70;99.90;;;;;;5061816;28;20236;-81
2022/09/30 06:50:36;;;;;;;3.13;2.87;;;21.90;99.90;;;;;;5063421;28;20182;-80
2022/09/30 06:53:05;;;;;;;2.20;2.00;;;22.50;99.90;;;;;;5065784;28;20212;-82
2022/09/30 06:55:31;;;;;;;1.43;1.10;;;23.20;99.90;;;;;;5066959;28;20327;-82
2022/09/30 06:57:57;;;;;;;1.47;1.00;;;23.20;99.90;;;;;;5069244;28;20270;-83
2022/09/30 07:00:27;;;;;;;1.20;1.07;;;23.70;99.90;;;;;;5067000;28;20632;-82
2022/09/30 07:02:55;;;;;;;1.13;1.03;;;23.00;99.90;;;;;;5065119;28;20220;-83
2022/09/30 07:05:22;;;;;;;1.60;1.43;;;22.40;99.90;;;;;;5065502;28;20230;-81
2022/09/30 07:07:48;;;;;;;1.47;1.03;;;21.20;99.90;;;;;;5060536;28;20626;-81
2022/09/30 07:10:13;;;;;;;1.50;1.23;;;19.40;99.90;;;;;;5066604;28;20229;-82
2022/09/30 07:12:41;;;;;;;1.33;1.23;;;18.70;99.90;;;;;;5068770;28;20287;-80
2022/09/30 07:15:07;;;;;;;2.27;1.03;;;17.90;99.90;;;;;;5064358;28;20392;-80
2022/09/30 07:17:32;;;;;;;4.10;1.00;;;17.10;99.90;;;;;;5047730;28;20665;-81
2022/09/30 07:19:58;;;;;;;0.80;0.80;;;17.00;99.90;;;;;;5069113;28;20303;-80
2022/09/30 07:22:28;;;;;;;1.73;1.20;;;17.40;99.90;;;;;;5054297;28;20311;-82
2022/09/30 07:25:05;;;;;;;1.60;1.20;;;18.60;99.90;;;;;;5070977;28;20221;-80
2022/09/30 07:27:32;;;;;;;1.73;1.20;;;20.40;99.90;;;;;;5068920;28;20224;-82
2022/09/30 07:29:59;;;;;;;2.13;1.40;;;21.70;99.90;;;;;;5049707;28;20272;-84
2022/09/30 07:32:25;;;;;;;3.90;1.50;;;22.80;99.90;;;;;;5072232;28;20184;-82
2022/09/30 07:34:51;;;;;;;2.83;1.43;;;23.60;99.90;;;;;;5067106;28;20228;-81
2022/09/30 07:37:18;;;;;;;3.40;1.40;;;24.10;99.90;;;;;;5068710;28;20227;-81
2022/09/30 07:39:45;;;;;;;1.20;1.10;;;24.80;99.90;;;;;;5063260;28;20251;-80
2022/09/30 07:42:13;;;;;;;3.57;1.13;;;25.10;99.90;;;;;;5068604;28;21377;-81
2022/09/30 07:44:42;;;;;;;1.20;1.10;;;25.60;99.90;;;;;;5063864;28;20217;-80
2022/09/30 07:47:10;;;;;;;1.03;1.00;;;25.40;99.90;;;;;;5064391;28;20333;-80
2022/09/30 07:49:36;;;;;;;1.27;0.97;;;25.20;99.90;;;;;;5065256;28;20238;-80
2022/09/30 07:52:02;;;;;;;1.00;0.90;;;25.90;99.90;;;;;;5066659;28;20353;-80
2022/09/30 07:54:30;;;;;;;3.03;1.57;;;25.90;99.90;;;;;;5070948;28;20303;-80
2022/09/30 07:56:57;;;;;;;1.40;1.30;;;26.20;99.90;;;;;;5071233;28;20193;-81
2022/09/30 07:59:26;;;;;;;1.50;1.40;;;26.80;99.90;;;;;;5066506;28;20551;-81
2022/09/30 08:01:52;;;;;;;0.90;0.90;;;27.00;99.90;;;;;;5070705;28;20224;-80
2022/09/30 08:04:18;;;;;;;1.33;1.00;;;27.20;99.90;;;;;;5054944;28;20703;-82
2022/09/30 08:06:47;;;;;;;1.17;1.07;;;27.50;99.90;;;;;;5071248;28;20224;-82
2022/09/30 08:09:16;;;;;;;1.15;0.93;;;27.50;99.90;;;;;;5067786;28;20213;-82
2022/09/30 08:11:41;;;;;;;1.20;1.10;;;27.10;99.90;;;;;;5069826;28;20225;-81
2022/09/30 08:14:13;;;;;;;2.57;1.53;;;27.00;99.90;;;;;;5065307;28;20694;-82
2022/09/30 08:16:39;;;;;;;1.48;1.38;;;26.70;99.90;;;;;;5073199;28;20583;-82
2022/09/30 08:19:04;;;;;;;1.40;1.30;;;26.50;99.90;;;;;;5068879;28;20709;-81
2022/09/30 08:21:30;;;;;;;1.98;1.38;;;26.80;99.90;;;;;;5031132;28;20221;-82
2022/09/30 08:23:56;;;;;;;1.88;1.38;;;26.10;99.90;;;;;;5070756;28;20598;-82
2022/09/30 08:26:23;;;;;;;1.40;1.30;;;26.40;99.90;;;;;;5066944;28;20200;-82
2022/09/30 08:28:49;;;;;;;1.98;1.48;;;26.30;99.90;;;;;;5068614;28;20841;-81
2022/09/30 08:31:18;;;;;;;3.05;1.13;;;26.50;99.90;;;;;;5075872;28;20216;-82
2022/09/30 08:33:44;;;;;;;1.92;1.20;;;26.60;99.90;;;;;;5069981;28;20209;-83
2022/09/30 08:36:13;;;;;;;1.40;1.25;;;26.30;99.90;;;;;;5068445;28;20229;-82
2022/09/30 08:38:39;;;;;;;1.20;1.15;;;26.00;99.90;;;;;;5077858;28;20180;-82
2022/09/30 08:41:10;;;;;;;5.07;1.00;;;26.70;99.90;;;;;;5057396;28;20921;-83
2022/09/30 08:44:14;;;;;;;1.55;1.20;;;26.90;99.90;;;;;;5064006;28;20600;-82
2022/09/30 08:47:03;;;;;;;1.52;1.05;;;27.40;99.90;;;;;;5063033;28;20694;-82
2022/09/30 08:50:08;;;;;;;14.98;1.50;;;26.90;99.90;;;;;;5069151;28;20247;-82
2022/09/30 08:52:41;;;;;;;1.00;0.90;;;24.80;99.90;;;;;;5069935;28;20464;-82
2022/09/30 08:55:13;;;;;;;0.95;0.73;;;22.50;99.90;;;;;;5070854;28;20233;-82
2022/09/30 08:57:43;;;;;;;1.15;0.60;;;21.40;99.90;;;;;;5069165;28;20274;-84
2022/09/30 09:00:14;;;;;;;1.08;0.77;;;20.00;99.90;;;;;;5073215;28;20224;-86
2022/09/30 09:02:56;;;;;;;1.97;0.80;;;19.00;99.90;;;;;;5074310;28;20259;-80
2022/09/30 09:05:27;;;;;;;2.00;0.77;;;18.70;99.90;;;;;;5084410;28;20237;-81
2022/09/30 09:07:59;;;;;;;0.90;0.90;;;18.70;99.90;;;;;;5068905;28;20217;-81
2022/09/30 09:10:43;;;;;;;1.13;1.10;;;18.20;99.90;;;;;;5069614;28;20225;-81
2022/09/30 09:13:29;;;;;;;1.00;0.73;;;17.80;99.90;;;;;;5068541;28;20260;-81
2022/09/30 09:16:13;;;;;;;1.03;1.00;;;17.40;99.90;;;;;;5068030;28;20434;-82
2022/09/30 09:19:04;;;;;;;0.77;0.77;;;17.10;99.90;;;;;;5068805;28;20220;-81
2022/09/30 09:21:46;;;;;;;0.87;0.87;;;17.00;99.90;;;;;;5072731;28;20209;-81
2022/09/30 09:24:18;;;;;;;1.10;1.00;;;17.10;99.90;;;;;;5073033;28;20670;-81
2022/09/30 09:26:45;;;;;;;0.73;0.73;;;16.90;99.90;;;;;;5070627;28;20469;-82
2022/09/30 09:29:36;;;;;;;1.30;1.10;;;16.90;99.90;;;;;;5074085;28;20342;-81
2022/09/30 09:32:02;;;;;;;1.13;1.00;;;17.10;99.90;;;;;;5072008;28;20224;-81
2022/09/30 09:34:29;;;;;;;1.77;1.20;;;17.40;99.90;;;;;;5071298;28;20213;-80
2022/09/30 09:38:23;;;;;;;4.27;1.03;;;17.30;99.90;;;;;;5067999;28;20316;-81
2022/09/30 09:40:36;;;;;;;1.63;0.80;;;17.10;99.90;;;;;;5066060;28;20208;-83
2022/09/30 09:43:15;;;;;;;1.00;1.00;;;17.10;99.90;;;;;;5061908;28;20225;-81
2022/09/30 09:45:55;;;;;;;1.90;1.03;;;17.60;99.90;;;;;;5074579;28;20768;-81
2022/09/30 09:48:21;;;;;;;1.87;1.20;;;18.20;99.90;;;;;;5072322;28;20470;-80
2022/09/30 09:51:02;;;;;;;2.57;1.57;;;19.10;99.90;;;;;;5068079;28;20189;-80
2022/09/30 09:53:44;;;;;;;1.47;1.30;;;19.90;99.90;;;;;;5064940;28;20211;-81
2022/09/30 09:56:27;;;;;;;2.93;1.00;;;20.50;99.90;;;;;;5069138;28;20579;-81
2022/09/30 09:59:12;;;;;;;2.80;1.43;;;21.50;99.90;;;;;;5068061;28;20332;-82
2022/09/30 10:01:41;;;;;;;2.67;1.17;;;22.00;99.90;;;;;;5069498;28;20208;-83
2022/09/30 10:04:19;;;;;;;1.33;1.20;;;21.60;99.90;;;;;;5072274;28;20217;-82
2022/09/30 10:07:07;;;;;;;1.30;1.20;;;20.50;99.90;;;;;;5070862;28;20274;-79
2022/09/30 10:09:38;;;;;;;1.40;1.00;;;19.90;99.90;;;;;;5054038;28;20229;-79
2022/09/30 10:12:06;;;;;;;0.77;0.70;;;21.20;99.90;;;;;;5048877;28;20252;-79
2022/09/30 10:14:45;;;;;;;1.40;1.00;;;21.40;99.90;;;;;;5069597;28;20181;-81
2022/09/30 10:17:21;;;;;;;1.57;1.00;;;21.50;99.90;;;;;;5068878;28;20445;-80
2022/09/30 10:19:56;;;;;;;1.17;0.90;;;21.80;99.90;;;;;;5071561;28;20231;-82
2022/09/30 10:22:32;;;;;;;0.83;0.80;;;22.20;99.90;;;;;;5066750;28;20662;-82
2022/09/30 10:25:24;;;;;;;0.70;0.70;;;22.70;99.90;;;;;;5070351;28;20229;-81
2022/09/30 10:27:53;;;;;;;1.17;0.93;;;23.40;99.90;;;;;;5067641;28;20758;-81
2022/09/30 10:30:31;;;;;;;0.70;0.70;;;22.40;99.90;;;;;;5073807;28;20261;-81
2022/09/30 10:32:57;;;;;;;1.07;0.80;;;21.10;99.90;;;;;;5070456;28;20203;-80
2022/09/30 10:35:23;;;;;;;1.17;1.07;;;21.40;99.90;;;;;;5066690;28;20710;-80
2022/09/30 10:37:51;;;;;;;0.70;0.50;;;21.70;99.90;;;;;;5069124;28;20240;-80
2022/09/30 10:40:18;;;;;;;0.57;0.57;;;21.90;99.90;;;;;;5070309;28;20674;-80
2022/09/30 10:42:46;;;;;;;1.80;0.50;;;21.60;99.90;;;;;;5065206;28;20235;-82
2022/09/30 10:45:32;;;;;;;0.70;0.70;;;22.10;99.90;;;;;;5054803;28;20647;-83
2022/09/30 10:48:02;;;;;;;1.37;0.83;;;21.80;99.90;;;;;;5067754;28;20266;-81
2022/09/30 10:50:27;;;;;;;0.90;0.90;;;21.00;99.90;;;;;;5072077;28;20182;-81
2022/09/30 10:53:14;;;;;;;1.63;1.00;;;20.30;99.90;;;;;;5072120;28;20513;-82
2022/09/30 10:55:45;;;;;;;0.80;0.80;;;20.60;99.90;;;;;;5067185;28;20229;-83
2022/09/30 10:58:39;;;;;;;0.70;0.70;;;21.60;99.90;;;;;;5068901;28;20741;-81
2022/09/30 11:01:14;;;;;;;1.00;0.90;;;22.00;99.90;;;;;;5063132;28;20220;-82
2022/09/30 11:04:05;;;;;;;2.17;1.17;;;21.40;99.90;;;;;;5068936;28;20212;-83
2022/09/30 11:06:36;;;;;;;2.90;0.90;;;21.30;99.90;;;;;;5066650;28;20266;-80
2022/09/30 11:09:18;;;;;;;1.93;1.00;;;21.80;99.90;;;;;;5050583;28;20497;-81
2022/09/30 11:11:58;;;;;;;3.83;1.20;;;21.70;99.90;;;;;;5069570;28;20726;-81
2022/09/30 11:14:48;;;;;;;0.90;0.90;;;21.90;99.90;;;;;;5069668;28;20215;-82
2022/09/30 11:17:21;;;;;;;0.93;0.90;;;22.60;99.90;;;;;;5069613;28;20205;-81
2022/09/30 11:20:08;;;;;;;1.00;0.90;;;22.80;99.90;;;;;;5067497;28;20266;-80
2022/09/30 11:23:01;;;;;;;1.10;1.00;;;22.10;99.90;;;;;;5066167;28;20221;-81
2022/09/30 11:25:59;;;;;;;1.80;1.00;;;21.40;99.90;;;;;;5069538;28;20220;-81
2022/09/30 11:28:57;;;;;;;1.20;1.10;;;21.30;99.90;;;;;;5062709;28;20241;-81
2022/09/30 11:31:53;;;;;;;1.60;1.17;;;21.20;99.90;;;;;;5026957;28;20693;-81
2022/09/30 11:34:28;;;;;;;0.43;0.43;;;21.10;99.90;;;;;;5070178;28;20205;-80
2022/09/30 11:37:16;;;;;;;1.17;0.70;;;20.80;99.90;;;;;;5070329;28;20701;-81
2022/09/30 11:39:54;;;;;;;0.60;0.60;;;20.80;99.90;;;;;;5066251;28;20214;-81
2022/09/30 11:42:43;;;;;;;1.50;0.70;;;20.70;99.90;;;;;;5069758;28;20250;-80
2022/09/30 11:45:15;;;;;;;0.73;0.70;;;20.20;99.90;;;;;;5064058;28;20220;-80
2022/09/30 11:48:13;;;;;;;0.63;0.63;;;20.10;99.90;;;;;;5069583;28;20265;-80
2022/09/30 11:50:49;;;;;;;0.80;0.60;;;20.20;99.90;;;;;;5052102;28;21045;-80
2022/09/30 11:53:34;;;;;;;1.23;1.13;;;19.70;99.90;;;;;;5065978;28;20221;-82
2022/09/30 11:56:14;;;;;;;1.17;1.03;;;19.80;99.90;;;;;;5059623;28;20256;-81
2022/09/30 11:58:44;;;;;;;1.23;0.77;;;19.70;99.90;;;;;;5079413;28;20707;-80
2022/09/30 12:01:40;;;;;;;0.73;0.73;;;19.60;99.90;;;;;;5062095;28;20303;-82
2022/09/30 12:04:34;;;;;;;1.20;0.90;;;19.60;99.90;;;;;;5062833;28;21166;-80
2022/09/30 12:07:24;;;;;;;1.07;1.00;;;19.10;99.90;;;;;;5062629;28;20252;-80
2022/09/30 12:09:57;;;;;;;1.30;0.90;;;19.40;99.90;;;;;;5066850;28;20358;-80
2022/09/30 12:12:23;;;;;;;0.77;0.73;;;19.70;99.90;;;;;;5066820;28;20253;-81
2022/09/30 12:14:56;;;;;;;0.90;0.90;;;19.50;99.90;;;;;;5058699;28;20224;-80
2022/09/30 12:17:25;;;;;;;2.27;1.23;;;18.60;99.90;;;;;;5075215;28;20185;-80
2022/09/30 12:19:54;;;;;;;1.93;1.40;;;18.40;99.90;;;;;;5060949;28;20252;-80
2022/09/30 12:22:27;;;;;;;1.43;1.33;;;18.40;99.90;;;;;;5068517;28;20324;-82
2022/09/30 12:24:53;;;;;;;0.93;0.87;;;18.00;99.90;;;;;;5065513;28;20245;-81
2022/09/30 12:27:21;;;;;;;2.00;1.10;;;17.80;99.90;;;;;;5066347;28;20750;-79
2022/09/30 12:33:11;;;;;;;1.10;1.00;;;17.50;99.90;;;;;;5068162;28;20730;-83
2022/09/30 12:35:55;;;;;;;1.20;1.10;;;17.70;99.90;;;;;;5067067;28;20245;-81
2022/09/30 12:38:43;;;;;;;1.23;1.10;;;17.90;99.90;;;;;;5065382;28;20304;-83
2022/09/30 12:41:30;;;;;;;1.07;0.93;;;17.90;99.90;;;;;;5073788;28;20246;-81
2022/09/30 12:44:11;;;;;;;0.93;0.90;;;17.90;99.90;;;;;;5073124;28;21214;-79
2022/09/30 12:47:07;;;;;;;1.83;1.00;;;17.80;99.90;;;;;;5071589;28;20609;-82
2022/09/30 12:49:36;;;;;;;2.30;1.07;;;17.80;99.90;;;;;;5068742;28;20232;-81
2022/09/30 12:52:06;;;;;;;2.47;1.30;;;17.90;99.90;;;;;;5074012;28;20673;-80
2022/09/30 12:54:41;;;;;;;1.60;1.50;;;17.90;99.90;;;;;;5068982;28;20204;-84
2022/09/30 12:57:08;;;;;;;1.50;1.20;;;17.80;99.90;;;;;;5074680;28;20664;-81
2022/09/30 12:59:37;;;;;;;0.90;0.90;;;17.50;99.90;;;;;;5069389;28;20181;-83
2022/09/30 13:02:05;;;;;;;1.93;1.67;;;17.70;99.90;;;;;;5072510;28;20221;-81
2022/09/30 13:04:35;;;;;;;1.83;1.30;;;18.00;99.90;;;;;;5069993;28;20221;-82
2022/09/30 13:07:01;;;;;;;1.40;1.30;;;18.20;99.90;;;;;;5066033;28;20642;-81
2022/09/30 13:09:33;;;;;;;1.40;1.30;;;18.30;99.90;;;;;;5076663;28;20252;-83
2022/09/30 13:11:58;;;;;;;1.73;1.50;;;18.30;99.90;;;;;;5070820;28;20238;-81
2022/09/30 13:14:36;;;;;;;2.50;1.80;;;18.30;99.90;;;;;;5074538;28;20847;-82
2022/09/30 13:17:09;;;;;;;1.53;1.43;;;18.10;99.90;;;;;;5070956;28;20268;-83
2022/09/30 13:19:56;;;;;;;2.37;1.60;;;18.00;99.90;;;;;;5071464;28;20686;-83
2022/09/30 13:22:30;;;;;;;1.43;1.13;;;18.10;99.90;;;;;;5068500;28;20228;-81
2022/09/30 13:25:02;;;;;;;3.77;2.00;;;18.00;99.90;;;;;;5071290;28;20208;-81
2022/09/30 13:27:54;;;;;;;2.00;1.80;;;17.80;99.90;;;;;;5074189;28;20222;-80